createdAt,value
2022-08-07T00:01:44.354Z,21.16
2022-08-07T00:04:06.368Z,21.12
2022-08-07T00:06:36.500Z,21.04
2022-08-07T00:09:16.675Z,21.11
2022-08-07T00:11:54.269Z,20.97
2022-08-07T00:14:25.466Z,20.85
2022-08-07T00:16:58.595Z,20.80
2022-08-07T00:19:26.048Z,20.76
2022-08-07T00:22:02.326Z,20.74
2022-08-07T00:24:31.680Z,20.66
2022-08-07T00:27:07.339Z,20.62
2022-08-07T00:29:36.998Z,20.59
2022-08-07T00:32:06.905Z,20.64
2022-08-07T00:34:35.386Z,20.63
2022-08-07T00:37:05.054Z,20.60
2022-08-07T00:39:35.780Z,20.61
2022-08-07T00:42:04.944Z,20.59
2022-08-07T00:44:33.916Z,20.63
2022-08-07T00:47:02.150Z,20.62
2022-08-07T00:50:16.896Z,20.64
2022-08-07T00:52:17.587Z,20.68
2022-08-07T00:54:46.939Z,20.58
2022-08-07T00:57:23.037Z,20.50
2022-08-07T00:59:53.260Z,20.48
2022-08-07T01:02:28.392Z,20.49
2022-08-07T01:04:58.676Z,20.48
2022-08-07T01:07:28.381Z,20.40
2022-08-07T01:10:05.936Z,20.29
2022-08-07T01:12:53.473Z,20.20
2022-08-07T01:15:35.821Z,20.21
2022-08-07T01:18:16.871Z,20.27
2022-08-07T01:20:59.353Z,20.27
2022-08-07T01:23:36.761Z,20.30
2022-08-07T01:26:16.682Z,20.33
2022-08-07T01:28:48.799Z,20.34
2022-08-07T01:31:27.868Z,20.38
2022-08-07T01:34:09.207Z,20.40
2022-08-07T01:36:40.900Z,20.34
2022-08-07T01:39:14.515Z,20.32
2022-08-07T01:42:01.720Z,20.20
2022-08-07T01:44:35.018Z,20.31
2022-08-07T01:47:14.432Z,20.56
2022-08-07T01:49:53.694Z,21.23
2022-08-07T01:52:26.756Z,21.61
2022-08-07T01:54:57.104Z,21.89
2022-08-07T01:57:33.993Z,22.10
2022-08-07T02:00:13.816Z,22.01
2022-08-07T02:03:12.585Z,21.84
2022-08-07T02:06:02.378Z,21.51
2022-08-07T02:08:42.363Z,21.25
2022-08-07T02:11:11.292Z,21.16
2022-08-07T02:14:02.705Z,20.95
2022-08-07T02:16:33.233Z,20.75
2022-08-07T02:19:05.663Z,20.65
2022-08-07T02:21:57.018Z,20.56
2022-08-07T02:24:29.445Z,20.51
2022-08-07T02:27:00.130Z,20.54
2022-08-07T02:29:30.668Z,20.57
2022-08-07T02:32:01.024Z,20.60
2022-08-07T02:34:29.097Z,20.67
2022-08-07T02:37:02.019Z,20.69
2022-08-07T02:40:01.637Z,20.81
2022-08-07T02:42:32.467Z,20.80
2022-08-07T02:45:07.437Z,20.74
2022-08-07T02:47:49.960Z,20.70
2022-08-07T02:50:19.753Z,20.69
2022-08-07T02:53:06.540Z,20.53
2022-08-07T02:56:02.319Z,20.48
2022-08-07T02:58:33.529Z,20.40
2022-08-07T03:01:03.295Z,20.21
2022-08-07T03:03:49.985Z,20.17
2022-08-07T03:06:25.942Z,19.89
2022-08-07T03:09:02.997Z,19.71
2022-08-07T03:11:32.971Z,19.51
2022-08-07T03:14:06.930Z,19.51
2022-08-07T03:16:34.901Z,19.46
2022-08-07T03:19:03.008Z,19.48
2022-08-07T03:21:33.459Z,19.46
2022-08-07T03:24:21.038Z,19.54
2022-08-07T03:26:58.170Z,19.62
2022-08-07T03:29:49.323Z,19.74
2022-08-07T03:32:23.163Z,19.60
2022-08-07T03:35:16.969Z,19.83
2022-08-07T03:37:54.016Z,19.86
2022-08-07T03:40:27.487Z,19.82
2022-08-07T03:43:00.788Z,19.77
2022-08-07T03:45:30.580Z,19.80
2022-08-07T03:48:10.137Z,19.80
2022-08-07T03:50:39.232Z,19.85
2022-08-07T03:53:11.336Z,19.91
2022-08-07T03:55:53.076Z,20.00
2022-08-07T03:59:07.202Z,20.13
2022-08-07T04:01:14.923Z,20.23
2022-08-07T04:03:53.390Z,20.32
2022-08-07T04:06:37.633Z,20.40
2022-08-07T04:09:15.295Z,20.62
2022-08-07T04:12:24.747Z,20.80
2022-08-07T04:14:37.430Z,20.92
2022-08-07T04:17:20.401Z,21.08
2022-08-07T04:19:54.898Z,21.17
2022-08-07T04:22:29.700Z,21.33
2022-08-07T04:25:02.254Z,21.45
2022-08-07T04:27:35.438Z,21.53
2022-08-07T04:30:35.506Z,21.68
2022-08-07T04:33:07.397Z,21.83
2022-08-07T04:35:37.745Z,21.92
2022-08-07T04:38:13.091Z,22.06
2022-08-07T04:40:52.635Z,22.21
2022-08-07T04:44:09.965Z,22.37
2022-08-07T04:47:04.993Z,22.56
2022-08-07T04:50:03.849Z,22.66
2022-08-07T04:52:46.945Z,22.70
2022-08-07T04:58:14.700Z,22.85
2022-08-07T05:00:11.021Z,22.88
2022-08-07T05:02:35.731Z,22.98
2022-08-07T05:05:11.995Z,23.05
2022-08-07T05:08:02.921Z,23.13
2022-08-07T05:10:45.506Z,23.28
2022-08-07T05:14:54.375Z,23.35
2022-08-07T05:16:09.442Z,23.52
2022-08-07T05:18:44.334Z,23.64
2022-08-07T05:21:14.840Z,23.62
2022-08-07T05:23:50.204Z,23.71
2022-08-07T05:26:23.596Z,23.82
2022-08-07T05:29:04.433Z,23.84
2022-08-07T05:31:38.626Z,23.92
2022-08-07T05:34:15.907Z,23.76
2022-08-07T05:36:52.881Z,23.63
2022-08-07T05:40:16.532Z,23.80
2022-08-07T05:42:36.938Z,23.91
2022-08-07T05:45:14.546Z,23.97
2022-08-07T05:48:01.588Z,24.03
2022-08-07T05:50:42.752Z,24.17
2022-08-07T05:54:12.677Z,24.15
2022-08-07T05:56:03.120Z,24.26
2022-08-07T05:58:37.616Z,24.40
2022-08-07T06:01:11.814Z,24.50
2022-08-07T06:03:57.088Z,24.51
2022-08-07T06:06:32.570Z,24.40
2022-08-07T06:09:05.221Z,24.49
2022-08-07T06:11:36.734Z,24.42
2022-08-07T06:14:12.619Z,24.48
2022-08-07T06:16:50.300Z,24.73
2022-08-07T06:19:52.402Z,24.81
2022-08-07T06:22:20.533Z,24.70
2022-08-07T06:25:01.789Z,24.80
2022-08-07T06:28:00.731Z,24.95
2022-08-07T06:30:32.440Z,25.00
2022-08-07T06:33:15.720Z,25.28
2022-08-07T06:36:06.381Z,25.33
2022-08-07T06:38:32.799Z,25.43
2022-08-07T06:41:07.039Z,25.61
2022-08-07T06:43:46.402Z,25.74
2022-08-07T06:46:20.421Z,25.76
2022-08-07T06:48:58.364Z,25.86
2022-08-07T06:51:33.489Z,26.10
2022-08-07T06:55:29.255Z,26.22
2022-08-07T06:56:55.646Z,26.30
2022-08-07T07:00:16.699Z,26.44
2022-08-07T07:02:48.131Z,26.41
2022-08-07T07:05:13.420Z,26.46
2022-08-07T07:08:06.350Z,26.40
2022-08-07T07:10:35.597Z,26.40
2022-08-07T07:13:56.102Z,26.54
2022-08-07T07:16:19.481Z,26.44
2022-08-07T07:18:54.297Z,26.42
2022-08-07T07:21:27.286Z,26.44
2022-08-07T07:24:12.525Z,26.56
2022-08-07T07:26:51.920Z,26.75
2022-08-07T07:29:55.868Z,26.93
2022-08-07T07:32:13.998Z,27.23
2022-08-07T07:34:45.300Z,27.37
2022-08-07T07:37:22.004Z,27.43
2022-08-07T07:40:10.190Z,27.54
2022-08-07T07:42:50.936Z,27.57
2022-08-07T07:46:37.883Z,27.73
2022-08-07T07:48:35.063Z,27.91
2022-08-07T07:51:07.894Z,27.93
2022-08-07T07:53:51.726Z,28.08
2022-08-07T07:56:30.024Z,28.34
2022-08-07T07:59:01.701Z,28.34
2022-08-07T08:02:04.061Z,28.31
2022-08-07T08:04:25.343Z,28.47
2022-08-07T08:06:53.596Z,28.58
2022-08-07T08:09:24.658Z,28.68
2022-08-07T08:12:01.597Z,28.54
2022-08-07T08:14:36.849Z,28.71
2022-08-07T08:17:55.334Z,28.60
2022-08-07T08:20:18.658Z,28.74
2022-08-07T08:23:12.818Z,28.49
2022-08-07T08:26:07.011Z,28.40
2022-08-07T08:28:43.421Z,28.07
2022-08-07T08:31:22.850Z,27.83
2022-08-07T08:34:06.375Z,27.99
2022-08-07T08:36:36.990Z,28.12
2022-08-07T08:39:08.995Z,28.10
2022-08-07T08:41:57.619Z,28.42
2022-08-07T08:44:31.374Z,28.44
2022-08-07T08:47:12.678Z,28.37
2022-08-07T08:50:02.591Z,28.40
2022-08-07T08:52:56.488Z,28.57
2022-08-07T08:55:55.238Z,28.49
2022-08-07T08:58:36.942Z,28.52
2022-08-07T09:01:18.543Z,28.65
2022-08-07T09:03:52.960Z,28.70
2022-08-07T09:06:36.483Z,29.00
2022-08-07T09:09:30.103Z,29.10
2022-08-07T09:12:31.845Z,29.31
2022-08-07T09:16:23.468Z,29.66
2022-08-07T09:18:36.662Z,30.00
2022-08-07T09:21:34.264Z,30.27
2022-08-07T09:24:55.395Z,30.68
2022-08-07T09:27:30.873Z,30.94
2022-08-07T09:30:09.422Z,31.32
2022-08-07T09:32:54.428Z,31.27
2022-08-07T09:36:05.013Z,31.34
2022-08-07T09:38:39.279Z,31.06
2022-08-07T09:41:58.587Z,31.10
2022-08-07T09:44:33.023Z,31.47
2022-08-07T09:47:58.991Z,31.42
2022-08-07T09:50:46.485Z,31.49
2022-08-07T09:53:15.941Z,31.53
2022-08-07T09:56:03.914Z,31.72
2022-08-07T09:59:01.112Z,31.71
2022-08-07T10:02:11.536Z,31.81
2022-08-07T10:05:15.534Z,32.05
2022-08-07T10:07:57.759Z,32.12
2022-08-07T10:11:59.771Z,31.78
2022-08-07T10:14:01.981Z,31.06
2022-08-07T10:16:53.458Z,30.83
2022-08-07T10:19:59.539Z,30.77
2022-08-07T10:23:00.206Z,31.19
2022-08-07T10:25:51.946Z,31.98
2022-08-07T10:28:51.305Z,32.07
2022-08-07T10:31:41.005Z,32.50
2022-08-07T10:34:41.025Z,33.04
2022-08-07T10:37:48.208Z,32.94
2022-08-07T10:40:42.612Z,32.68
2022-08-07T10:43:34.521Z,32.10
2022-08-07T10:46:09.407Z,31.74
2022-08-07T10:49:04.777Z,31.35
2022-08-07T10:52:02.307Z,31.11
2022-08-07T10:55:00.879Z,30.99
2022-08-07T10:57:56.137Z,30.78
2022-08-07T11:00:39.217Z,30.87
2022-08-07T11:03:28.163Z,31.55
2022-08-07T11:06:23.106Z,32.44
2022-08-07T11:09:11.301Z,33.12
2022-08-07T11:12:01.341Z,32.27
2022-08-07T11:14:59.690Z,32.03
2022-08-07T11:17:53.778Z,32.43
2022-08-07T11:20:35.657Z,32.44
2022-08-07T11:23:45.437Z,33.09
2022-08-07T11:26:31.554Z,34.06
2022-08-07T11:29:13.149Z,34.23
2022-08-07T11:31:58.647Z,33.70
2022-08-07T11:34:42.419Z,33.18
2022-08-07T11:37:38.718Z,32.75
2022-08-07T11:40:27.579Z,32.34
2022-08-07T11:43:04.471Z,31.98
2022-08-07T11:46:13.041Z,31.69
2022-08-07T11:49:51.068Z,31.50
2022-08-07T11:52:35.758Z,32.02
2022-08-07T11:56:08.644Z,31.83
2022-08-07T11:58:58.736Z,31.92
2022-08-07T12:02:00.745Z,31.81
2022-08-07T12:04:47.672Z,31.54
2022-08-07T12:07:27.468Z,31.50
2022-08-07T12:10:24.579Z,31.64
2022-08-07T12:13:03.143Z,32.07
2022-08-07T12:16:06.849Z,32.64
2022-08-07T12:19:14.666Z,33.64
2022-08-07T12:22:38.467Z,34.30
2022-08-07T12:26:06.139Z,34.87
2022-08-07T12:28:44.897Z,35.23
2022-08-07T12:32:01.509Z,35.06
2022-08-07T12:34:38.891Z,34.51
2022-08-07T12:37:16.851Z,34.15
2022-08-07T12:39:53.213Z,34.23
2022-08-07T12:42:27.579Z,34.61
2022-08-07T12:44:59.343Z,34.17
2022-08-07T12:47:43.194Z,33.55
2022-08-07T12:50:39.396Z,33.27
2022-08-07T12:53:21.859Z,33.20
2022-08-07T12:56:09.384Z,34.07
2022-08-07T12:58:42.918Z,35.02
2022-08-07T13:01:27.921Z,35.87
2022-08-07T13:04:18.883Z,37.02
2022-08-07T13:07:03.215Z,37.36
2022-08-07T13:10:18.938Z,36.57
2022-08-07T13:13:46.659Z,35.11
2022-08-07T13:16:16.172Z,35.13
2022-08-07T13:18:50.804Z,35.22
2022-08-07T13:21:50.098Z,35.06
2022-08-07T13:24:21.128Z,34.38
2022-08-07T13:27:00.533Z,34.00
2022-08-07T13:29:56.205Z,33.29
2022-08-07T13:32:31.819Z,32.74
2022-08-07T13:35:08.854Z,32.56
2022-08-07T13:37:59.020Z,32.18
2022-08-07T13:40:57.015Z,31.53
2022-08-07T13:43:27.640Z,31.18
2022-08-07T13:46:20.891Z,30.86
2022-08-07T13:48:59.339Z,30.65
2022-08-07T13:52:04.831Z,30.26
2022-08-07T13:54:23.706Z,30.04
2022-08-07T13:56:56.306Z,29.69
2022-08-07T13:59:33.537Z,29.57
2022-08-07T14:02:08.618Z,29.44
2022-08-07T14:04:54.597Z,29.37
2022-08-07T14:07:30.653Z,29.22
2022-08-07T14:10:02.605Z,29.25
2022-08-07T14:12:54.890Z,29.30
2022-08-07T14:15:36.095Z,29.36
2022-08-07T14:18:28.057Z,29.30
2022-08-07T14:21:11.695Z,29.34
2022-08-07T14:24:00.751Z,29.38
2022-08-07T14:26:36.126Z,29.34
2022-08-07T14:29:10.682Z,29.25
2022-08-07T14:31:56.110Z,29.33
2022-08-07T14:34:29.892Z,29.33
2022-08-07T14:37:01.697Z,29.33
2022-08-07T14:40:18.389Z,28.95
2022-08-07T14:42:31.330Z,28.92
2022-08-07T14:45:21.310Z,28.86
2022-08-07T14:47:58.731Z,28.91
2022-08-07T14:53:16.492Z,28.86
2022-08-07T14:56:06.712Z,28.85
2022-08-07T14:58:44.517Z,28.86
2022-08-07T15:01:22.356Z,28.82
2022-08-07T15:03:53.374Z,28.85
2022-08-07T15:06:27.635Z,28.89
2022-08-07T15:09:01.589Z,28.85
2022-08-07T15:12:01.577Z,29.00
2022-08-07T15:14:32.509Z,28.97
2022-08-07T15:17:16.626Z,28.98
2022-08-07T15:20:31.586Z,29.02
2022-08-07T15:22:51.706Z,29.10
2022-08-07T15:25:36.823Z,29.12
2022-08-07T15:28:34.520Z,29.21
2022-08-07T15:33:46.668Z,29.13
2022-08-07T15:39:10.400Z,29.13
2022-08-07T15:42:44.581Z,29.07
2022-08-07T15:44:51.987Z,29.12
2022-08-07T15:47:21.884Z,29.21
2022-08-07T15:53:16.251Z,29.26
2022-08-07T15:56:02.744Z,29.35
2022-08-07T15:58:39.230Z,29.50
2022-08-07T16:01:13.340Z,29.51
2022-08-07T16:03:58.219Z,29.53
2022-08-07T16:06:34.986Z,29.52
2022-08-07T16:09:13.191Z,29.85
2022-08-07T16:12:02.091Z,29.98
2022-08-07T16:14:31.865Z,29.73
2022-08-07T16:17:15.932Z,29.73
2022-08-07T16:20:34.938Z,29.71
2022-08-07T16:23:55.151Z,29.65
2022-08-07T16:26:31.107Z,29.55
2022-08-07T16:30:10.983Z,29.52
2022-08-07T16:32:35.381Z,29.35
2022-08-07T18:43:03.242Z,24.74
2022-08-07T18:46:25.232Z,24.70
2022-08-07T18:50:30.967Z,24.48
2022-08-07T18:53:06.456Z,24.50
2022-08-07T18:55:57.136Z,24.33
2022-08-07T18:58:51.875Z,24.38
2022-08-07T19:02:18.305Z,24.39
2022-08-07T19:04:56.145Z,24.39
2022-08-07T19:07:51.952Z,24.31
2022-08-07T19:10:51.554Z,24.27
2022-08-07T19:13:56.561Z,24.27
2022-08-07T19:17:05.483Z,24.12
2022-08-07T19:19:53.912Z,24.11
2022-08-07T19:22:30.878Z,24.09
2022-08-07T19:25:06.559Z,23.90
2022-08-07T19:28:57.640Z,23.84
2022-08-07T19:31:04.085Z,23.80
2022-08-07T19:33:18.863Z,23.72
2022-08-07T19:36:01.938Z,23.66
2022-08-07T19:38:32.349Z,23.62
2022-08-07T19:41:01.304Z,23.56
2022-08-07T19:43:45.024Z,23.52
2022-08-07T19:46:26.443Z,23.50
2022-08-07T19:49:03.091Z,23.42
2022-08-07T19:51:52.517Z,23.38
2022-08-07T19:54:32.104Z,23.16
2022-08-07T19:58:00.891Z,23.23
2022-08-07T19:59:59.592Z,23.15
2022-08-07T20:02:39.243Z,23.08
2022-08-07T20:05:09.930Z,23.00
2022-08-07T20:07:47.872Z,22.87
2022-08-07T20:10:36.070Z,22.70
2022-08-07T20:13:26.984Z,22.77
2022-08-07T20:16:02.081Z,22.53
2022-08-07T20:18:34.412Z,22.62
2022-08-07T20:21:14.399Z,22.52
2022-08-07T20:23:53.886Z,22.46
2022-08-07T20:26:29.570Z,22.29
2022-08-07T20:29:01.716Z,22.29
2022-08-07T20:31:44.144Z,22.26
2022-08-07T20:34:15.279Z,22.14
2022-08-07T20:36:44.121Z,22.09
2022-08-07T20:40:04.034Z,22.10
2022-08-07T20:42:23.929Z,22.03
2022-08-07T20:44:53.073Z,22.00
2022-08-07T20:47:55.932Z,21.93
2022-08-07T20:50:18.613Z,21.91
2022-08-07T20:52:51.458Z,21.80
2022-08-07T20:55:23.906Z,21.80
2022-08-07T20:58:08.997Z,21.72
2022-08-07T21:00:47.179Z,21.58
2022-08-07T21:03:25.522Z,21.36
2022-08-07T21:06:21.418Z,21.40
2022-08-07T21:09:12.876Z,21.29
2022-08-07T21:11:50.281Z,21.19
2022-08-07T21:14:34.022Z,21.09
2022-08-07T21:18:02.150Z,21.00
2022-08-07T21:20:06.212Z,20.90
2022-08-07T21:22:45.061Z,20.96
2022-08-07T21:25:56.729Z,20.84
2022-08-07T21:28:48.805Z,20.82
2022-08-07T21:32:03.677Z,20.78
2022-08-07T21:34:46.152Z,20.66
2022-08-07T21:37:25.907Z,20.67
2022-08-07T21:40:06.688Z,20.55
2022-08-07T21:42:48.349Z,20.44
2022-08-07T21:46:05.398Z,20.36
2022-08-07T21:48:55.700Z,20.42
2022-08-07T21:51:32.326Z,20.38
2022-08-07T21:54:19.693Z,20.36
2022-08-07T21:57:07.579Z,20.33
2022-08-07T22:00:06.108Z,20.10
2022-08-07T22:02:43.351Z,20.18
2022-08-07T22:05:21.710Z,20.24
2022-08-07T22:08:05.565Z,20.19
2022-08-07T22:10:38.515Z,20.20
2022-08-07T22:13:14.427Z,20.14
2022-08-07T22:16:38.653Z,20.02
2022-08-07T22:19:16.150Z,19.91
2022-08-07T22:22:17.773Z,19.86
2022-08-07T22:25:08.699Z,19.80
2022-08-07T22:28:07.727Z,19.66
2022-08-07T22:30:31.892Z,19.60
2022-08-07T22:33:07.319Z,19.58
2022-08-07T22:35:50.287Z,19.52
2022-08-07T22:38:24.072Z,19.41
2022-08-07T22:40:51.497Z,19.38
2022-08-07T22:43:31.650Z,19.23
2022-08-07T22:47:02.113Z,19.16
2022-08-07T22:49:18.067Z,19.10
2022-08-07T22:51:54.474Z,19.04
2022-08-07T22:54:48.911Z,18.95
2022-08-07T22:57:16.992Z,18.89
2022-08-07T23:00:03.240Z,18.86
2022-08-07T23:02:39.393Z,18.86
2022-08-07T23:06:07.588Z,18.83
2022-08-07T23:08:24.090Z,18.75
2022-08-07T23:11:35.111Z,18.72
2022-08-07T23:14:33.809Z,18.72
2022-08-07T23:17:45.295Z,18.70
2022-08-07T23:20:40.255Z,18.69
2022-08-07T23:24:06.625Z,18.63
2022-08-07T23:26:50.595Z,18.62
2022-08-07T23:30:36.086Z,18.56
2022-08-07T23:34:18.617Z,18.46
2022-08-07T23:35:46.454Z,18.30
2022-08-07T23:38:36.684Z,18.27
2022-08-07T23:41:33.347Z,18.23
2022-08-07T23:44:29.741Z,18.12
2022-08-07T23:47:30.732Z,18.17
2022-08-07T23:50:37.482Z,18.24
2022-08-07T23:53:51.717Z,18.23
2022-08-07T23:56:23.691Z,18.14
2022-08-07T23:58:59.232Z,18.09
